createdAt,value
2018-06-01T00:02:09.041Z,9.70
2018-06-01T00:04:36.594Z,9.93
2018-06-01T00:07:04.194Z,10.37
2018-06-01T00:09:32.069Z,9.80
2018-06-01T00:12:00.542Z,9.83
2018-06-01T00:14:28.228Z,11.10
2018-06-01T00:16:56.952Z,11.63
2018-06-01T00:19:24.540Z,12.83
2018-06-01T00:21:52.351Z,10.60
2018-06-01T00:24:19.997Z,12.90
2018-06-01T00:26:48.514Z,12.03
2018-06-01T00:29:16.212Z,10.63
2018-06-01T00:31:43.802Z,10.83
2018-06-01T00:34:12.285Z,13.30
2018-06-01T00:36:40.651Z,12.13
2018-06-01T00:39:09.084Z,12.60
2018-06-01T00:41:37.127Z,10.57
2018-06-01T00:44:04.682Z,10.10
2018-06-01T00:46:33.594Z,10.73
2018-06-01T00:49:01.203Z,12.67
2018-06-01T00:51:28.766Z,10.50
2018-06-01T00:53:57.300Z,12.03
2018-06-01T00:56:25.060Z,13.33
2018-06-01T00:58:52.667Z,9.70
2018-06-01T01:01:21.170Z,10.67
2018-06-01T01:03:49.497Z,12.50
2018-06-01T01:06:17.342Z,11.30
2018-06-01T01:08:45.009Z,11.20
2018-06-01T01:11:12.565Z,10.97
2018-06-01T01:13:40.813Z,10.87
2018-06-01T01:16:09.136Z,9.30
2018-06-01T01:18:36.698Z,10.47
2018-06-01T01:21:04.387Z,10.40
2018-06-01T01:23:32.008Z,11.90
2018-06-01T01:26:00.583Z,12.43
2018-06-01T01:28:28.179Z,10.77
2018-06-01T01:30:56.566Z,11.07
2018-06-01T01:33:24.254Z,12.37
2018-06-01T01:35:52.628Z,11.83
2018-06-01T01:38:20.972Z,12.37
2018-06-01T01:41:06.373Z,12.13
2018-06-01T01:43:33.951Z,12.43
2018-06-01T01:46:01.595Z,12.30
2018-06-01T01:48:30.078Z,12.10
2018-06-01T01:50:58.800Z,12.80
2018-06-01T01:53:26.832Z,11.67
2018-06-01T01:55:55.149Z,11.40
2018-06-01T01:58:22.913Z,13.50
2018-06-01T02:00:50.504Z,11.20
2018-06-01T02:03:18.151Z,12.53
2018-06-01T02:05:45.940Z,12.43
2018-06-01T02:08:13.573Z,13.23
2018-06-01T02:10:41.711Z,15.60
2018-06-01T02:13:12.174Z,13.47
2018-06-01T02:15:39.814Z,12.27
2018-06-01T02:18:07.454Z,12.87
2018-06-01T02:20:35.834Z,13.87
2018-06-01T02:23:04.166Z,14.53
2018-06-01T02:25:32.745Z,15.77
2018-06-01T02:28:00.343Z,14.33
2018-06-01T02:30:28.825Z,13.40
2018-06-01T02:32:57.810Z,15.43
2018-06-01T02:35:26.515Z,14.83
2018-06-01T02:37:55.429Z,12.47
2018-06-01T02:40:23.105Z,13.83
2018-06-01T02:42:50.667Z,12.80
2018-06-01T02:45:18.231Z,16.97
2018-06-01T02:47:46.618Z,15.27
2018-06-01T02:50:14.195Z,12.40
2018-06-01T02:52:41.796Z,12.53
2018-06-01T02:55:09.352Z,14.90
2018-06-01T02:57:36.918Z,12.17
2018-06-01T03:00:04.665Z,12.03
2018-06-01T03:02:32.529Z,12.73
2018-06-01T03:05:00.852Z,13.80
2018-06-01T03:07:28.435Z,12.93
2018-06-01T03:09:56.048Z,12.47
2018-06-01T03:12:23.627Z,11.93
2018-06-01T03:14:51.257Z,13.23
2018-06-01T03:17:19.066Z,14.03
2018-06-01T03:19:46.628Z,15.53
2018-06-01T03:22:14.910Z,13.87
2018-06-01T03:24:42.485Z,15.80
2018-06-01T03:27:12.253Z,14.10
2018-06-01T03:29:40.779Z,14.00
2018-06-01T03:32:09.177Z,13.70
2018-06-01T03:34:36.894Z,15.40
2018-06-01T03:37:04.447Z,14.33
2018-06-01T03:39:32.814Z,14.70
2018-06-01T03:42:00.589Z,15.53
2018-06-01T03:44:28.330Z,15.80
2018-06-01T03:46:55.911Z,15.70
2018-06-01T03:49:23.515Z,15.50
2018-06-01T03:51:52.500Z,14.97
2018-06-01T03:54:20.841Z,15.47
2018-06-01T03:56:48.419Z,15.57
2018-06-01T03:59:16.289Z,15.00
2018-06-01T04:01:43.855Z,16.97
2018-06-01T04:04:12.190Z,16.47
2018-06-01T04:06:39.833Z,16.97
2018-06-01T04:09:07.487Z,18.03
2018-06-01T04:11:36.422Z,18.17
2018-06-01T04:14:04.037Z,17.97
2018-06-01T04:16:31.603Z,15.60
2018-06-01T04:18:59.201Z,15.20
2018-06-01T04:21:26.762Z,16.77
2018-06-01T04:23:54.515Z,18.37
2018-06-01T04:26:22.124Z,14.37
2018-06-01T04:28:50.469Z,15.93
2018-06-01T04:31:18.051Z,14.37
2018-06-01T04:33:46.427Z,13.57
2018-06-01T04:36:14.924Z,14.50
2018-06-01T04:38:43.298Z,14.83
2018-06-01T04:41:11.674Z,15.20
2018-06-01T04:43:40.195Z,14.67
2018-06-01T04:46:07.963Z,13.67
2018-06-01T04:48:35.615Z,22.23
2018-06-01T04:51:03.302Z,15.70
2018-06-01T04:53:30.950Z,20.97
2018-06-01T04:55:58.503Z,19.77
2018-06-01T04:58:26.672Z,19.83
2018-06-01T05:00:54.265Z,17.80
2018-06-01T05:03:22.634Z,13.90
2018-06-01T05:05:50.355Z,19.30
2018-06-01T05:08:18.734Z,20.93
2018-06-01T05:10:46.861Z,27.43
2018-06-01T05:13:14.576Z,25.03
2018-06-01T05:15:42.261Z,33.37
2018-06-01T05:18:09.904Z,23.13
2018-06-01T05:20:39.193Z,21.63
2018-06-01T05:23:07.358Z,23.60
2018-06-01T05:25:36.207Z,18.43
2018-06-01T05:28:05.634Z,16.40
2018-06-01T05:30:34.416Z,14.80
2018-06-01T05:33:02.036Z,13.83
2018-06-01T05:35:30.257Z,16.80
2018-06-01T05:37:57.966Z,18.40
2018-06-01T05:40:25.627Z,14.57
2018-06-01T05:42:54.358Z,14.80
2018-06-01T05:45:24.056Z,14.07
2018-06-01T05:47:51.664Z,9.67
2018-06-01T05:50:20.565Z,11.37
2018-06-01T05:52:48.519Z,13.47
2018-06-01T05:55:16.090Z,9.50
2018-06-01T05:57:43.864Z,11.13
2018-06-01T06:00:11.509Z,12.77
2018-06-01T06:02:39.203Z,11.07
2018-06-01T06:05:06.835Z,11.37
2018-06-01T06:07:34.535Z,10.07
2018-06-01T06:10:02.191Z,11.83
2018-06-01T06:12:30.435Z,10.80
2018-06-01T06:14:58.525Z,11.83
2018-06-01T06:17:26.272Z,10.93
2018-06-01T06:19:54.793Z,10.53
2018-06-01T06:22:22.378Z,11.80
2018-06-01T06:24:50.943Z,11.73
2018-06-01T06:27:18.672Z,11.40
2018-06-01T06:29:46.269Z,9.93
2018-06-01T06:32:14.760Z,8.70
2018-06-01T06:34:43.955Z,9.67
2018-06-01T06:37:12.324Z,9.30
2018-06-01T06:39:41.607Z,11.20
2018-06-01T06:42:09.347Z,11.43
2018-06-01T06:44:37.221Z,15.20
2018-06-01T06:47:04.829Z,25.43
2018-06-01T06:49:33.170Z,14.57
2018-06-01T06:52:00.920Z,15.90
2018-06-01T06:54:28.522Z,15.83
2018-06-01T06:56:56.101Z,9.97
2018-06-01T06:59:24.535Z,11.67
2018-06-01T07:01:52.115Z,10.70
2018-06-01T07:04:19.700Z,9.47
2018-06-01T07:06:48.100Z,8.23
2018-06-01T07:09:15.891Z,11.33
2018-06-01T07:11:43.505Z,14.27
2018-06-01T07:14:11.062Z,8.97
2018-06-01T07:16:38.635Z,14.33
2018-06-01T07:19:06.249Z,11.40
2018-06-01T07:21:34.434Z,9.37
2018-06-01T07:24:02.004Z,10.07
2018-06-01T07:26:30.512Z,9.20
2018-06-01T07:28:58.143Z,10.13
2018-06-01T07:31:26.600Z,8.47
2018-06-01T07:33:54.188Z,11.33
2018-06-01T07:36:22.547Z,10.03
2018-06-01T07:38:50.269Z,9.10
2018-06-01T07:41:17.824Z,7.23
2018-06-01T07:43:45.452Z,9.40
2018-06-01T07:46:13.785Z,8.03
2018-06-01T07:48:41.371Z,9.27
2018-06-01T07:51:09.108Z,9.43
2018-06-01T07:53:36.702Z,11.20
2018-06-01T07:56:04.392Z,12.30
2018-06-01T07:58:31.967Z,10.87
2018-06-01T08:00:59.737Z,8.53
2018-06-01T08:03:27.308Z,11.17
2018-06-01T08:05:54.925Z,9.27
2018-06-01T08:08:23.285Z,10.10
2018-06-01T08:10:52.114Z,9.80
2018-06-01T08:13:19.672Z,10.10
2018-06-01T08:15:47.262Z,8.83
2018-06-01T08:18:14.921Z,10.10
2018-06-01T08:20:42.836Z,7.23
2018-06-01T08:23:10.431Z,10.03
2018-06-01T08:25:38.184Z,7.67
2018-06-01T08:28:05.957Z,7.80
2018-06-01T08:30:33.524Z,5.73
2018-06-01T08:33:01.238Z,4.77
2018-06-01T08:35:29.595Z,4.37
2018-06-01T08:37:58.035Z,7.63
2018-06-01T08:40:25.792Z,7.00
2018-06-01T08:42:53.338Z,5.00
2018-06-01T08:45:21.008Z,3.60
2018-06-01T08:47:48.601Z,3.87
2018-06-01T08:50:16.315Z,5.87
2018-06-01T08:52:44.108Z,4.30
2018-06-01T08:55:11.904Z,3.87
2018-06-01T08:57:39.554Z,3.93
2018-06-01T09:00:08.055Z,3.70
2018-06-01T09:02:36.338Z,5.37
2018-06-01T09:05:04.719Z,5.70
2018-06-01T09:07:34.141Z,4.40
2018-06-01T09:10:01.844Z,3.53
2018-06-01T09:12:29.575Z,4.50
2018-06-01T09:14:57.255Z,3.93
2018-06-01T09:17:24.858Z,3.03
2018-06-01T09:19:52.443Z,5.47
2018-06-01T09:22:21.826Z,11.30
2018-06-01T09:24:50.423Z,7.23
2018-06-01T09:27:18.807Z,9.60
2018-06-01T09:29:47.201Z,3.50
2018-06-01T09:32:14.864Z,2.80
2018-06-01T09:34:42.521Z,4.07
2018-06-01T09:37:10.091Z,4.67
2018-06-01T09:39:37.868Z,4.93
2018-06-01T09:42:05.546Z,5.00
2018-06-01T09:44:33.141Z,4.07
2018-06-01T09:47:01.482Z,3.03
2018-06-01T09:49:29.233Z,3.63
2018-06-01T09:51:56.803Z,2.60
2018-06-01T09:54:24.445Z,3.90
2018-06-01T09:56:52.072Z,2.30
2018-06-01T09:59:20.536Z,4.97
2018-06-01T10:01:48.138Z,4.57
2018-06-01T10:04:15.735Z,2.57
2018-06-01T10:06:43.374Z,2.33
2018-06-01T10:09:11.220Z,5.93
2018-06-01T10:11:39.578Z,5.97
2018-06-01T10:14:08.211Z,6.50
2018-06-01T10:16:35.771Z,2.77
2018-06-01T10:19:03.384Z,2.97
2018-06-01T10:21:31.913Z,4.83
2018-06-01T10:23:59.529Z,4.10
2018-06-01T10:26:28.014Z,4.13
2018-06-01T10:28:55.604Z,4.60
2018-06-01T10:31:23.216Z,4.73
2018-06-01T10:33:50.803Z,4.67
2018-06-01T10:36:19.271Z,3.70
2018-06-01T10:38:46.932Z,5.00
2018-06-01T10:41:14.544Z,4.90
2018-06-01T10:43:42.636Z,4.47
2018-06-01T10:46:10.243Z,5.57
2018-06-01T10:48:37.803Z,3.47
2018-06-01T10:51:06.137Z,2.50
2018-06-01T10:53:33.755Z,3.97
2018-06-01T10:56:01.423Z,3.63
2018-06-01T10:58:28.982Z,3.87
2018-06-01T11:00:56.592Z,5.63
2018-06-01T11:03:24.245Z,4.37
2018-06-01T11:05:51.833Z,4.53
2018-06-01T11:08:19.403Z,6.33
2018-06-01T11:10:47.782Z,3.83
2018-06-01T11:13:15.421Z,3.70
2018-06-01T11:15:43.014Z,3.58
2018-06-01T11:18:11.348Z,4.47
2018-06-01T11:20:38.915Z,3.87
2018-06-01T11:23:06.507Z,4.40
2018-06-01T11:25:34.869Z,2.63
2018-06-01T11:28:02.432Z,3.07
2018-06-01T11:30:30.247Z,3.00
2018-06-01T11:32:57.829Z,2.87
2018-06-01T11:35:25.399Z,2.03
2018-06-01T11:37:52.989Z,2.47
2018-06-01T11:40:20.546Z,2.47
2018-06-01T11:42:48.982Z,2.37
2018-06-01T11:45:16.638Z,2.67
2018-06-01T11:47:44.192Z,3.22
2018-06-01T11:50:11.766Z,2.00
2018-06-01T11:52:39.397Z,4.07
2018-06-01T11:55:07.722Z,3.55
2018-06-01T11:57:35.266Z,3.83
2018-06-01T12:00:02.945Z,3.30
2018-06-01T12:02:30.569Z,4.33
2018-06-01T12:04:58.206Z,6.63
2018-06-01T12:07:26.617Z,3.67
2018-06-01T12:09:54.171Z,4.57
2018-06-01T12:12:21.756Z,3.50
2018-06-01T12:14:49.341Z,2.67
2018-06-01T12:17:16.974Z,4.10
2018-06-01T12:19:44.636Z,3.43
2018-06-01T12:22:12.204Z,5.80
2018-06-01T12:24:39.750Z,3.47
2018-06-01T12:27:07.338Z,3.10
2018-06-01T12:29:35.033Z,2.93
2018-06-01T12:32:03.378Z,2.50
2018-06-01T12:34:30.949Z,4.13
2018-06-01T12:36:58.506Z,2.60
2018-06-01T12:39:26.110Z,2.57
2018-06-01T12:41:54.433Z,3.03
2018-06-01T12:44:22.036Z,2.50
2018-06-01T12:46:49.636Z,4.00
2018-06-01T12:49:17.222Z,2.35
2018-06-01T12:51:44.835Z,2.78
2018-06-01T12:54:13.184Z,3.85
2018-06-01T12:56:40.745Z,2.42
2018-06-01T12:59:08.353Z,2.83
2018-06-01T13:01:35.926Z,2.15
2018-06-01T13:04:03.507Z,3.45
2018-06-01T13:06:31.063Z,3.17
2018-06-01T13:08:58.663Z,3.37
2018-06-01T13:11:27.058Z,2.05
2018-06-01T13:13:54.641Z,2.50
2018-06-01T13:16:22.218Z,4.80
2018-06-01T13:18:49.843Z,3.37
2018-06-01T13:21:18.173Z,5.20
2018-06-01T13:23:45.735Z,3.53
2018-06-01T13:26:13.323Z,4.12
2018-06-01T13:28:40.924Z,4.25
2018-06-01T13:31:08.517Z,4.68
2018-06-01T13:33:36.128Z,3.17
2018-06-01T13:36:03.705Z,2.33
2018-06-01T13:38:31.298Z,3.00
2018-06-01T13:40:58.876Z,3.12
2018-06-01T13:43:26.479Z,4.72
2018-06-01T13:45:54.088Z,3.22
2018-06-01T13:48:21.664Z,5.65
2018-06-01T13:50:49.251Z,3.15
2018-06-01T13:53:17.577Z,2.87
2018-06-01T13:55:45.167Z,3.75
2018-06-01T13:58:12.764Z,3.87
2018-06-01T14:00:40.351Z,3.53
2018-06-01T14:03:07.988Z,6.75
2018-06-01T14:05:35.598Z,4.22
2018-06-01T14:08:03.194Z,4.37
2018-06-01T14:10:31.537Z,3.92
2018-06-01T14:12:59.734Z,4.32
2018-06-01T14:15:27.310Z,2.97
2018-06-01T14:17:55.728Z,5.00
2018-06-01T14:20:23.278Z,6.43
2018-06-01T14:22:50.856Z,3.12
2018-06-01T14:25:18.439Z,6.43
2018-06-01T14:27:46.023Z,3.93
2018-06-01T14:30:14.404Z,4.10
2018-06-01T14:32:42.744Z,5.00
2018-06-01T14:35:11.292Z,4.83
2018-06-01T14:37:39.726Z,4.80
2018-06-01T14:40:07.280Z,3.83
2018-06-01T14:42:34.901Z,4.47
2018-06-01T14:45:02.476Z,4.90
2018-06-01T14:47:30.043Z,5.53
2018-06-01T14:49:57.622Z,4.20
2018-06-01T14:52:25.227Z,5.53
2018-06-01T14:54:52.795Z,6.40
2018-06-01T14:57:20.408Z,3.57
2018-06-01T14:59:47.979Z,5.13
2018-06-01T15:02:15.549Z,3.67
2018-06-01T15:04:43.123Z,8.80
2018-06-01T15:07:11.522Z,6.53
2018-06-01T15:09:39.073Z,10.03
2018-06-01T15:12:07.495Z,4.43
2018-06-01T15:14:35.064Z,4.27
2018-06-01T15:17:02.667Z,4.30
2018-06-01T15:19:31.076Z,4.97
2018-06-01T15:21:58.694Z,3.27
2018-06-01T15:24:27.085Z,6.13
2018-06-01T15:26:55.657Z,7.50
2018-06-01T15:29:23.288Z,5.60
2018-06-01T15:31:50.876Z,4.17
2018-06-01T15:34:18.505Z,4.23
2018-06-01T15:36:46.087Z,6.70
2018-06-01T15:39:13.668Z,5.40
2018-06-01T15:41:42.096Z,13.33
2018-06-01T15:44:09.667Z,10.37
2018-06-01T15:46:37.279Z,8.93
2018-06-01T15:49:05.656Z,5.77
2018-06-01T15:51:33.170Z,4.53
2018-06-01T15:54:00.789Z,4.33
2018-06-01T15:56:29.195Z,6.30
2018-06-01T15:58:56.761Z,6.03
2018-06-01T16:01:24.413Z,7.70
2018-06-01T16:03:51.962Z,5.07
2018-06-01T16:06:19.517Z,4.53
2018-06-01T16:08:47.843Z,6.67
2018-06-01T16:11:15.417Z,7.30
2018-06-01T16:13:43.025Z,7.10
2018-06-01T16:16:10.577Z,5.57
2018-06-01T16:18:38.899Z,3.67
2018-06-01T16:21:06.540Z,5.60
2018-06-01T16:23:34.107Z,8.33
2018-06-01T16:26:01.783Z,9.10
2018-06-01T16:28:29.407Z,5.93
2018-06-01T16:30:56.957Z,6.00
2018-06-01T16:33:25.388Z,8.20
2018-06-01T16:35:52.935Z,7.97
2018-06-01T16:38:20.706Z,4.30
2018-06-01T16:40:48.306Z,6.20
2018-06-01T16:43:15.861Z,4.70
2018-06-01T16:45:43.455Z,4.67
2018-06-01T16:48:11.055Z,4.10
2018-06-01T16:50:38.666Z,5.60
2018-06-01T16:53:07.077Z,4.30
2018-06-01T16:55:34.638Z,5.63
2018-06-01T16:58:02.191Z,5.47
2018-06-01T17:00:29.807Z,6.13
2018-06-01T17:02:57.375Z,7.23
2018-06-01T17:05:25.004Z,7.17
2018-06-01T17:07:52.563Z,7.73
2018-06-01T17:10:20.173Z,6.50
2018-06-01T17:12:48.538Z,5.07
2018-06-01T17:15:16.090Z,5.97
2018-06-01T17:17:43.705Z,4.77
2018-06-01T17:20:11.327Z,5.67
2018-06-01T17:22:39.755Z,6.27
2018-06-01T17:25:07.284Z,5.43
2018-06-01T17:27:35.596Z,5.47
2018-06-01T17:30:03.325Z,4.40
2018-06-01T17:32:30.885Z,4.20
2018-06-01T17:34:59.197Z,5.23
2018-06-01T17:37:26.843Z,6.00
2018-06-01T17:39:54.467Z,7.57
2018-06-01T17:42:22.292Z,14.53
2018-06-01T17:44:50.053Z,7.57
2018-06-01T17:47:17.590Z,5.80
2018-06-01T17:49:45.138Z,5.90
2018-06-01T17:52:13.527Z,6.23
2018-06-01T17:54:41.095Z,5.33
2018-06-01T17:57:08.689Z,4.03
2018-06-01T17:59:36.228Z,5.70
2018-06-01T18:02:03.892Z,6.90
2018-06-01T18:04:31.465Z,5.67
2018-06-01T18:06:59.031Z,5.10
2018-06-01T18:09:26.641Z,5.23
2018-06-01T18:11:55.023Z,4.30
2018-06-01T18:14:23.406Z,3.80
2018-06-01T18:16:51.753Z,4.20
2018-06-01T18:19:19.373Z,5.57
2018-06-01T18:21:46.995Z,4.33
2018-06-01T18:24:15.360Z,3.20
2018-06-01T18:26:42.913Z,3.57
2018-06-01T18:29:10.529Z,2.97
2018-06-01T18:31:38.179Z,2.40
2018-06-01T18:34:05.788Z,4.37
2018-06-01T18:36:33.354Z,3.50
2018-06-01T18:39:00.956Z,3.13
2018-06-01T18:41:29.322Z,3.40
2018-06-01T18:43:57.767Z,3.50
2018-06-01T18:46:25.495Z,4.77
2018-06-01T18:48:53.037Z,5.30
2018-06-01T18:51:21.410Z,5.10
2018-06-01T18:53:49.789Z,7.33
2018-06-01T18:56:18.464Z,3.80
2018-06-01T18:58:46.855Z,5.40
2018-06-01T19:01:15.222Z,5.90
2018-06-01T19:03:42.833Z,7.17
2018-06-01T19:06:10.396Z,3.83
2018-06-01T19:11:11.915Z,4.33
2018-06-01T19:13:39.548Z,4.17
2018-06-01T19:16:07.191Z,4.27
2018-06-01T19:18:34.859Z,4.10
2018-06-01T19:21:02.436Z,3.93
2018-06-01T19:23:30.144Z,3.67
2018-06-01T19:25:58.523Z,4.30
2018-06-01T19:28:27.013Z,4.33
2018-06-01T19:30:55.383Z,4.77
2018-06-01T19:33:23.717Z,5.27
2018-06-01T19:35:51.382Z,4.73
2018-06-01T19:38:18.959Z,4.53
2018-06-01T19:40:46.531Z,5.00
2018-06-01T19:43:14.914Z,3.87
2018-06-01T19:45:42.510Z,3.80
2018-06-01T19:48:10.143Z,3.77
2018-06-01T19:50:38.487Z,4.50
2018-06-01T19:53:06.045Z,5.33
2018-06-01T19:55:33.746Z,5.20
2018-06-01T19:58:02.087Z,4.63
2018-06-01T20:00:29.656Z,6.23
2018-06-01T20:02:57.255Z,6.30
2018-06-01T20:05:24.823Z,4.40
2018-06-01T20:07:52.464Z,4.60
2018-06-01T20:10:20.801Z,5.23
2018-06-01T20:12:48.379Z,5.50
2018-06-01T20:15:16.049Z,4.50
2018-06-01T20:17:43.643Z,6.37
2018-06-01T20:20:12.062Z,5.00
2018-06-01T20:22:39.613Z,6.90
2018-06-01T20:25:07.165Z,4.70
2018-06-01T20:27:34.798Z,5.23
2018-06-01T20:30:03.123Z,4.67
2018-06-01T20:32:30.698Z,5.33
2018-06-01T20:34:58.300Z,4.73
2018-06-01T20:37:26.652Z,5.10
2018-06-01T20:39:54.323Z,9.60
2018-06-01T20:42:21.986Z,4.67
2018-06-01T20:44:49.562Z,5.27
2018-06-01T20:47:17.945Z,5.20
2018-06-01T20:49:46.262Z,4.90
2018-06-01T20:52:13.913Z,4.90
2018-06-01T20:54:41.463Z,4.63
2018-06-01T20:57:09.063Z,5.40
2018-06-01T20:59:36.717Z,7.27
2018-06-01T21:02:04.307Z,4.77
2018-06-01T21:04:31.931Z,4.83
2018-06-01T21:06:59.471Z,5.00
2018-06-01T21:09:27.019Z,6.23
2018-06-01T21:11:55.393Z,5.17
2018-06-01T21:14:23.720Z,7.03
2018-06-01T21:16:51.350Z,5.80
2018-06-01T21:19:18.903Z,5.97
2018-06-01T21:21:47.271Z,5.83
2018-06-01T21:24:15.628Z,6.23
2018-06-01T21:26:43.968Z,6.43
2018-06-01T21:29:11.694Z,6.33
2018-06-01T21:31:40.015Z,7.50
2018-06-01T21:34:07.590Z,6.13
2018-06-01T21:36:35.164Z,5.90
2018-06-01T21:39:02.811Z,6.13
2018-06-01T21:41:30.402Z,5.57
2018-06-01T21:43:57.970Z,5.30
2018-06-01T21:46:26.339Z,6.23
2018-06-01T21:48:53.910Z,6.63
2018-06-01T21:51:22.223Z,7.73
2018-06-01T21:53:49.830Z,6.30
2018-06-01T21:56:17.450Z,7.20
2018-06-01T21:58:45.002Z,5.97
2018-06-01T22:01:12.633Z,5.40
2018-06-01T22:03:40.967Z,5.97
2018-06-01T22:06:08.527Z,8.80
2018-06-01T22:08:36.092Z,9.03
2018-06-01T22:11:03.671Z,8.90
2018-06-01T22:13:31.231Z,10.17
2018-06-01T22:15:58.793Z,12.50
2018-06-01T22:18:26.386Z,7.50
2018-06-01T22:20:53.963Z,7.50
2018-06-01T22:23:21.528Z,8.50
2018-06-01T22:25:49.126Z,7.70
2018-06-01T22:28:16.689Z,7.33
2018-06-01T22:30:44.257Z,7.90
2018-06-01T22:33:11.843Z,7.83
2018-06-01T22:35:40.231Z,10.03
2018-06-01T22:38:08.615Z,7.63
2018-06-01T22:40:36.163Z,7.70
2018-06-01T22:43:04.543Z,7.60
2018-06-01T22:45:32.857Z,7.83
2018-06-01T22:48:00.404Z,8.80
2018-06-01T22:50:28.000Z,10.53
2018-06-01T22:52:55.664Z,10.10
2018-06-01T22:55:23.277Z,10.80
2018-06-01T22:57:50.966Z,11.10
2018-06-01T23:03:23.937Z,11.07
2018-06-01T23:05:51.531Z,10.57
2018-06-01T23:08:19.271Z,11.10
2018-06-01T23:10:46.888Z,10.63
2018-06-01T23:13:14.517Z,10.93
2018-06-01T23:15:42.135Z,10.17
2018-06-01T23:18:10.490Z,10.53
2018-06-01T23:20:38.121Z,10.83
2018-06-01T23:23:06.616Z,11.00
2018-06-01T23:25:34.210Z,10.03
2018-06-01T23:28:01.802Z,10.70
2018-06-01T23:30:29.429Z,11.43
2018-06-01T23:32:57.102Z,10.60
2018-06-01T23:35:24.734Z,10.33
2018-06-01T23:37:52.362Z,10.03
2018-06-01T23:40:20.005Z,13.20
2018-06-01T23:42:48.340Z,12.73
2018-06-01T23:45:15.921Z,14.23
2018-06-01T23:47:43.549Z,13.00
2018-06-01T23:50:11.143Z,13.47
2018-06-01T23:52:38.999Z,13.50
2018-06-01T23:55:06.687Z,11.93
2018-06-01T23:57:34.285Z,11.63
